createdAt,value
2018-08-06T00:00:37.782Z,3.00
2018-08-06T00:03:06.225Z,3.10
2018-08-06T00:05:34.465Z,2.80
2018-08-06T00:08:02.656Z,2.83
2018-08-06T00:10:30.862Z,3.30
2018-08-06T00:12:59.086Z,2.83
2018-08-06T00:15:27.349Z,3.08
2018-08-06T00:17:55.575Z,3.60
2018-08-06T00:20:23.792Z,2.72
2018-08-06T00:22:52.072Z,2.90
2018-08-06T00:25:20.301Z,3.87
2018-08-06T00:27:48.529Z,3.33
2018-08-06T00:30:19.187Z,3.10
2018-08-06T00:32:48.126Z,3.15
2018-08-06T00:35:16.971Z,4.28
2018-08-06T00:37:45.188Z,5.42
2018-08-06T00:40:15.822Z,3.37
2018-08-06T00:42:44.828Z,3.80
2018-08-06T00:45:15.330Z,3.05
2018-08-06T00:47:43.911Z,3.20
2018-08-06T00:50:12.494Z,3.60
2018-08-06T00:52:40.773Z,3.55
2018-08-06T00:55:11.321Z,3.17
2018-08-06T00:57:39.734Z,3.10
2018-08-06T01:00:10.433Z,2.85
2018-08-06T01:02:38.646Z,2.83
2018-08-06T01:05:08.172Z,3.67
2018-08-06T01:07:36.599Z,3.05
2018-08-06T01:10:05.889Z,3.22
2018-08-06T01:12:34.148Z,4.08
2018-08-06T01:15:02.161Z,2.90
2018-08-06T01:17:30.415Z,2.95
2018-08-06T01:19:58.416Z,3.33
2018-08-06T01:22:26.964Z,3.30
2018-08-06T01:24:54.973Z,3.12
2018-08-06T01:27:23.206Z,3.72
2018-08-06T01:29:51.438Z,4.37
2018-08-06T01:35:10.039Z,3.00
2018-08-06T01:37:39.353Z,4.47
2018-08-06T01:40:10.688Z,3.58
2018-08-06T01:42:39.956Z,5.22
2018-08-06T01:45:10.467Z,3.58
2018-08-06T01:47:40.242Z,3.58
2018-08-06T01:50:10.225Z,3.50
2018-08-06T01:52:40.684Z,3.45
2018-08-06T01:55:10.603Z,3.17
2018-08-06T01:57:40.085Z,3.62
2018-08-06T02:00:20.700Z,3.45
2018-08-06T02:02:50.545Z,3.37
2018-08-06T02:05:21.656Z,3.40
2018-08-06T02:25:10.198Z,3.30
2018-08-06T02:27:39.598Z,3.92
2018-08-06T02:30:11.202Z,3.37
2018-08-06T02:32:40.620Z,3.37
2018-08-06T02:35:11.126Z,5.53
2018-08-06T02:37:41.446Z,3.47
2018-08-06T02:40:13.572Z,3.30
2018-08-06T02:42:43.082Z,3.05
2018-08-06T02:45:13.161Z,3.77
2018-08-06T02:47:42.555Z,2.75
2018-08-06T02:50:12.775Z,3.02
2018-08-06T02:52:43.368Z,3.20
2018-08-06T02:55:14.420Z,2.90
2018-08-06T02:57:43.915Z,3.27
2018-08-06T03:00:19.161Z,3.17
2018-08-06T03:02:48.760Z,3.35
2018-08-06T03:05:19.039Z,3.08
2018-08-06T03:07:53.360Z,3.15
2018-08-06T03:10:23.499Z,3.30
2018-08-06T03:12:53.020Z,3.20
2018-08-06T03:15:24.616Z,3.65
2018-08-06T03:17:54.005Z,3.25
2018-08-06T03:20:25.026Z,4.45
2018-08-06T03:22:54.589Z,3.50
2018-08-06T03:25:24.902Z,3.62
2018-08-06T03:27:54.145Z,3.62
2018-08-06T03:30:24.278Z,3.98
2018-08-06T03:32:53.566Z,3.17
2018-08-06T03:35:25.376Z,3.58
2018-08-06T03:37:54.586Z,3.80
2018-08-06T03:40:24.562Z,2.77
2018-08-06T04:00:06.066Z,3.27
2018-08-06T04:02:35.297Z,4.05
2018-08-06T04:05:15.562Z,4.30
2018-08-06T04:07:44.830Z,3.27
2018-08-06T04:10:16.542Z,4.42
2018-08-06T04:12:45.924Z,3.37
2018-08-06T04:15:16.045Z,3.83
2018-08-06T04:17:45.465Z,3.35
2018-08-06T04:20:15.036Z,4.15
2018-08-06T04:22:44.489Z,3.52
2018-08-06T04:25:13.319Z,4.30
2018-08-06T04:27:43.189Z,3.50
2018-08-06T04:30:14.378Z,3.45
2018-08-06T04:32:44.353Z,5.08
2018-08-06T04:35:13.733Z,3.27
2018-08-06T04:37:43.869Z,3.50
2018-08-06T04:40:14.964Z,5.03
2018-08-06T04:42:44.483Z,3.58
2018-08-06T04:45:14.822Z,3.25
2018-08-06T04:47:44.256Z,4.30
2018-08-06T04:50:14.121Z,3.58
2018-08-06T04:52:44.401Z,3.60
2018-08-06T04:55:16.042Z,3.67
2018-08-06T04:57:45.112Z,3.12
2018-08-06T05:00:15.672Z,4.50
2018-08-06T05:02:45.537Z,3.65
2018-08-06T05:05:15.493Z,3.58
2018-08-06T05:07:46.013Z,4.12
2018-08-06T05:10:15.969Z,4.62
2018-08-06T05:12:45.759Z,3.52
2018-08-06T05:15:24.154Z,4.80
2018-08-06T05:18:12.354Z,4.17
2018-08-06T05:38:02.422Z,4.10
2018-08-06T05:40:35.274Z,3.60
2018-08-06T05:43:06.475Z,6.15
2018-08-06T05:45:51.255Z,3.70
2018-08-06T05:48:25.411Z,3.75
2018-08-06T05:50:56.523Z,3.42
2018-08-06T05:53:27.391Z,3.70
2018-08-06T05:55:57.028Z,3.62
2018-08-06T05:58:26.011Z,3.75
2018-08-06T06:00:55.754Z,3.83
2018-08-06T06:03:29.188Z,4.92
2018-08-06T06:12:08.238Z,3.55
2018-08-06T06:14:37.867Z,6.25
2018-08-06T06:17:06.995Z,3.98
2018-08-06T06:19:36.655Z,4.40
2018-08-06T06:22:05.540Z,3.60
2018-08-06T06:24:34.844Z,3.72
2018-08-06T06:27:05.561Z,3.55
2018-08-06T06:29:34.610Z,3.50
2018-08-06T06:32:04.023Z,4.17
2018-08-06T06:34:33.097Z,3.45
2018-08-06T06:37:02.443Z,3.70
2018-08-06T06:39:31.434Z,5.85
2018-08-06T06:42:01.695Z,3.67
2018-08-06T06:44:30.759Z,3.45
2018-08-06T06:47:00.299Z,3.72
2018-08-06T06:49:29.922Z,3.77
2018-08-06T06:51:59.476Z,3.60
2018-08-06T06:54:28.796Z,3.45
2018-08-06T06:56:57.964Z,4.12
2018-08-06T06:59:27.070Z,4.30
2018-08-06T07:01:55.960Z,4.10
2018-08-06T07:04:26.016Z,3.22
2018-08-06T07:06:54.670Z,4.28
2018-08-06T07:09:23.716Z,3.60
2018-08-06T07:11:54.674Z,4.33
2018-08-06T07:14:23.660Z,3.40
2018-08-06T07:16:53.118Z,3.70
2018-08-06T07:19:22.910Z,3.47
2018-08-06T07:21:51.820Z,3.22
2018-08-06T07:24:22.486Z,3.80
2018-08-06T07:26:52.446Z,3.15
2018-08-06T07:29:23.021Z,4.33
2018-08-06T07:31:51.975Z,3.08
2018-08-06T07:34:22.008Z,3.42
2018-08-06T07:36:50.570Z,3.50
2018-08-06T07:39:19.878Z,4.10
2018-08-06T07:41:48.851Z,3.40
2018-08-06T07:44:18.738Z,3.37
2018-08-06T07:46:47.982Z,3.15
2018-08-06T07:49:18.422Z,4.58
2018-08-06T07:51:48.225Z,4.05
2018-08-06T07:54:17.304Z,9.50
2018-08-06T07:56:46.342Z,4.33
2018-08-06T07:59:15.480Z,4.95
2018-08-06T08:01:45.326Z,3.42
2018-08-06T08:04:16.617Z,3.37
2018-08-06T08:06:46.721Z,3.70
2018-08-06T08:09:15.794Z,3.50
2018-08-06T08:11:46.064Z,3.58
2018-08-06T08:14:15.812Z,3.30
2018-08-06T08:16:45.004Z,5.47
2018-08-06T08:19:14.098Z,3.92
2018-08-06T08:21:43.718Z,3.67
2018-08-06T08:24:13.317Z,3.77
2018-08-06T08:26:42.346Z,5.92
2018-08-06T08:29:11.993Z,3.20
2018-08-06T08:31:41.468Z,4.62
2018-08-06T08:34:10.588Z,3.45
2018-08-06T08:36:40.453Z,4.33
2018-08-06T08:39:11.871Z,5.40
2018-08-06T08:41:41.818Z,3.17
2018-08-06T08:44:11.124Z,4.25
2018-08-06T08:46:41.017Z,5.22
2018-08-06T08:49:10.500Z,3.40
2018-08-06T08:51:40.523Z,4.53
2018-08-06T08:54:10.558Z,3.05
2018-08-06T08:56:40.784Z,3.65
2018-08-06T08:59:10.219Z,3.22
2018-08-06T09:01:39.831Z,4.60
2018-08-06T09:04:08.776Z,3.33
2018-08-06T09:06:39.392Z,3.30
2018-08-06T09:09:11.448Z,4.78
2018-08-06T09:11:41.726Z,3.42
2018-08-06T09:14:12.290Z,3.65
2018-08-06T09:16:41.476Z,3.25
2018-08-06T09:19:10.345Z,3.40
2018-08-06T09:21:40.178Z,4.85
2018-08-06T09:24:09.643Z,3.17
2018-08-06T09:26:39.344Z,3.70
2018-08-06T09:29:10.428Z,3.45
2018-08-06T09:31:40.526Z,3.00
2018-08-06T09:34:10.665Z,3.50
2018-08-06T09:36:39.782Z,3.42
2018-08-06T09:39:11.210Z,4.20
2018-08-06T09:41:41.574Z,4.28
2018-08-06T09:44:11.324Z,3.62
2018-08-06T09:46:40.886Z,3.20
2018-08-06T09:49:10.503Z,2.98
2018-08-06T09:51:39.886Z,4.92
2018-08-06T09:54:09.917Z,3.08
2018-08-06T09:56:38.781Z,4.15
2018-08-06T09:59:07.913Z,4.92
2018-08-06T10:01:42.277Z,3.20
2018-08-06T10:04:12.913Z,3.50
2018-08-06T10:06:42.305Z,5.35
2018-08-06T10:09:11.387Z,4.15
2018-08-06T10:11:40.143Z,3.15
2018-08-06T10:14:09.513Z,5.17
2018-08-06T10:16:40.321Z,3.98
2018-08-06T10:19:09.808Z,3.70
2018-08-06T10:21:39.860Z,3.65
2018-08-06T10:24:09.205Z,4.58
2018-08-06T10:26:38.432Z,3.83
2018-08-06T10:29:08.383Z,3.95
2018-08-06T10:31:38.341Z,3.00
2018-08-06T10:34:08.068Z,3.25
2018-08-06T10:36:37.232Z,3.02
2018-08-06T10:39:09.228Z,4.60
2018-08-06T10:41:38.794Z,4.92
2018-08-06T10:44:08.640Z,4.37
2018-08-06T10:46:39.190Z,4.30
2018-08-06T10:49:08.340Z,3.83
2018-08-06T10:51:37.748Z,2.72
2018-08-06T10:54:06.945Z,3.17
2018-08-06T10:56:38.657Z,3.17
2018-08-06T10:59:07.652Z,3.17
2018-08-06T11:01:39.757Z,3.35
2018-08-06T11:04:08.912Z,2.83
2018-08-06T11:06:38.177Z,3.45
2018-08-06T11:09:08.752Z,4.22
2018-08-06T11:11:38.041Z,3.17
2018-08-06T11:14:07.867Z,3.12
2018-08-06T11:16:37.030Z,3.50
2018-08-06T11:19:06.448Z,3.90
2018-08-06T11:21:36.112Z,3.60
2018-08-06T11:24:05.779Z,3.37
2018-08-06T11:26:35.564Z,3.67
2018-08-06T11:29:05.594Z,3.25
2018-08-06T11:31:35.487Z,3.67
2018-08-06T11:34:04.882Z,4.50
2018-08-06T11:36:38.829Z,3.70
2018-08-06T11:39:11.411Z,3.65
2018-08-06T11:41:40.707Z,3.50
2018-08-06T11:44:10.567Z,3.67
2018-08-06T11:46:39.695Z,4.10
2018-08-06T11:49:09.205Z,3.40
2018-08-06T11:51:39.363Z,3.45
2018-08-06T11:54:09.865Z,2.90
2018-08-06T11:56:39.477Z,3.95
2018-08-06T11:59:09.597Z,3.52
2018-08-06T12:01:38.837Z,3.30
2018-08-06T12:04:07.883Z,3.85
2018-08-06T12:06:36.814Z,3.70
2018-08-06T12:09:09.002Z,4.12
2018-08-06T12:11:38.841Z,4.20
2018-08-06T12:14:07.974Z,3.60
2018-08-06T12:16:37.756Z,4.40
2018-08-06T12:19:06.390Z,4.20
2018-08-06T12:21:35.423Z,4.15
2018-08-06T12:24:04.460Z,4.50
2018-08-06T12:26:33.108Z,6.00
2018-08-06T12:29:02.556Z,5.08
2018-08-06T12:31:31.772Z,4.15
2018-08-06T12:34:00.680Z,4.30
2018-08-06T12:36:29.735Z,6.40
2018-08-06T12:39:07.272Z,3.80
2018-08-06T12:41:36.603Z,4.37
2018-08-06T12:44:05.620Z,4.50
2018-08-06T12:46:35.947Z,4.10
2018-08-06T12:49:05.034Z,4.65
2018-08-06T12:51:34.138Z,4.42
2018-08-06T12:54:03.848Z,4.67
2018-08-06T12:56:32.957Z,4.83
2018-08-06T12:59:02.037Z,4.10
2018-08-06T13:01:31.105Z,4.55
2018-08-06T13:04:00.387Z,4.55
2018-08-06T13:06:30.288Z,6.08
2018-08-06T13:09:00.323Z,5.03
2018-08-06T13:11:28.909Z,4.87
2018-08-06T13:13:57.421Z,4.65
2018-08-06T13:16:27.074Z,4.83
2018-08-06T13:18:55.714Z,4.72
2018-08-06T13:21:24.953Z,5.53
2018-08-06T13:23:54.453Z,5.67
2018-08-06T13:26:23.866Z,4.50
2018-08-06T13:28:52.787Z,4.87
2018-08-06T13:31:21.781Z,5.15
2018-08-06T13:33:51.103Z,4.47
2018-08-06T13:36:19.578Z,5.35
2018-08-06T13:38:48.533Z,4.83
2018-08-06T13:41:17.840Z,4.90
2018-08-06T13:43:48.380Z,5.20
2018-08-06T13:46:17.507Z,5.03
2018-08-06T13:48:46.548Z,5.08
2018-08-06T13:51:16.218Z,4.90
2018-08-06T13:53:45.469Z,5.62
2018-08-06T13:56:14.617Z,5.08
2018-08-06T13:58:43.194Z,5.30
2018-08-06T14:01:12.136Z,5.58
2018-08-06T14:03:40.809Z,5.10
2018-08-06T14:06:09.824Z,5.00
2018-08-06T14:08:38.974Z,5.15
2018-08-06T14:11:08.115Z,5.78
2018-08-06T14:13:37.169Z,5.72
2018-08-06T14:16:06.077Z,5.00
2018-08-06T14:18:35.827Z,5.37
2018-08-06T14:21:05.785Z,5.05
2018-08-06T14:23:35.163Z,5.67
2018-08-06T14:26:04.301Z,6.03
2018-08-06T14:28:33.328Z,6.08
2018-08-06T14:31:03.030Z,7.12
2018-08-06T14:33:32.251Z,5.40
2018-08-06T14:36:01.281Z,6.33
2018-08-06T14:38:30.059Z,6.10
2018-08-06T14:40:59.088Z,5.65
2018-08-06T14:43:28.317Z,5.70
2018-08-06T14:45:57.288Z,5.90
2018-08-06T14:48:27.205Z,5.85
2018-08-06T14:50:56.397Z,6.62
2018-08-06T14:53:25.633Z,6.47
2018-08-06T14:55:54.903Z,6.62
2018-08-06T14:58:23.787Z,6.45
2018-08-06T15:00:53.056Z,6.45
2018-08-06T15:03:22.163Z,6.40
2018-08-06T15:05:51.599Z,5.95
2018-08-06T15:08:20.748Z,5.75
2018-08-06T15:10:49.799Z,6.72
2018-08-06T15:13:18.982Z,6.05
2018-08-06T15:15:48.206Z,6.15
2018-08-06T15:18:17.327Z,6.40
2018-08-06T15:20:46.925Z,6.10
2018-08-06T15:23:16.624Z,6.50
2018-08-06T15:25:45.906Z,6.67
2018-08-06T15:28:14.959Z,6.75
2018-08-06T15:30:44.036Z,6.30
2018-08-06T15:33:13.072Z,6.12
2018-08-06T15:35:42.401Z,5.90
2018-08-06T15:38:12.032Z,6.53
2018-08-06T15:40:41.722Z,6.20
2018-08-06T15:43:10.835Z,6.47
2018-08-06T15:45:40.779Z,5.90
2018-08-06T15:48:09.253Z,5.90
2018-08-06T15:50:38.301Z,6.00
2018-08-06T15:53:07.574Z,5.70
2018-08-06T15:55:36.611Z,5.67
2018-08-06T15:58:06.599Z,6.12
2018-08-06T16:00:35.764Z,6.30
2018-08-06T16:03:06.249Z,6.10
2018-08-06T16:05:38.866Z,5.53
2018-08-06T16:08:08.977Z,6.05
2018-08-06T16:10:38.417Z,6.62
2018-08-06T16:13:08.328Z,5.72
2018-08-06T16:15:37.961Z,6.40
2018-08-06T16:18:07.190Z,5.53
2018-08-06T16:20:36.487Z,6.03
2018-08-06T16:23:05.553Z,5.72
2018-08-06T16:25:34.661Z,6.30
2018-08-06T16:28:03.926Z,6.35
2018-08-06T16:30:33.603Z,5.55
2018-08-06T16:33:03.544Z,6.30
2018-08-06T16:35:34.067Z,6.00
2018-08-06T16:38:03.391Z,6.08
2018-08-06T16:40:33.863Z,5.85
2018-08-06T16:43:02.454Z,5.72
2018-08-06T16:45:32.608Z,5.30
2018-08-06T16:48:01.578Z,5.67
2018-08-06T16:50:30.985Z,5.60
2018-08-06T16:53:01.080Z,6.00
2018-08-06T16:55:30.184Z,5.90
2018-08-06T16:57:59.916Z,5.58
2018-08-06T17:00:30.994Z,5.78
2018-08-06T17:03:00.459Z,5.60
2018-08-06T17:05:30.112Z,7.75
2018-08-06T17:07:59.882Z,5.65
2018-08-06T17:10:28.622Z,5.87
2018-08-06T17:12:58.478Z,5.78
2018-08-06T17:15:29.018Z,5.75
2018-08-06T17:17:58.191Z,5.62
2018-08-06T17:20:27.670Z,5.60
2018-08-06T17:22:56.678Z,5.97
2018-08-06T17:25:26.674Z,6.47
2018-08-06T17:27:56.732Z,6.55
2018-08-06T17:30:27.192Z,5.92
2018-08-06T17:32:57.007Z,6.03
2018-08-06T17:35:26.980Z,6.05
2018-08-06T17:37:56.157Z,6.28
2018-08-06T17:40:25.771Z,6.37
2018-08-06T17:42:55.305Z,5.97
2018-08-06T17:45:24.757Z,5.80
2018-08-06T17:47:54.729Z,5.83
2018-08-06T17:50:24.327Z,5.42
2018-08-06T17:52:54.156Z,5.45
2018-08-06T17:55:24.465Z,5.83
2018-08-06T17:57:53.074Z,5.40
2018-08-06T18:00:23.213Z,6.10
2018-08-06T18:02:52.305Z,5.87
2018-08-06T18:05:22.391Z,5.90
2018-08-06T18:07:50.989Z,5.35
2018-08-06T18:10:21.553Z,5.55
2018-08-06T18:12:51.041Z,7.30
2018-08-06T18:15:21.232Z,5.83
2018-08-06T18:17:50.501Z,5.67
2018-08-06T18:20:20.826Z,5.62
2018-08-06T18:22:50.379Z,6.28
2018-08-06T18:25:20.077Z,5.58
2018-08-06T18:27:50.433Z,6.08
2018-08-06T18:30:20.706Z,5.90
2018-08-06T18:32:49.877Z,6.25
2018-08-06T18:35:19.895Z,5.53
2018-08-06T18:37:49.340Z,6.30
2018-08-06T18:40:20.630Z,6.35
2018-08-06T18:42:50.742Z,5.62
2018-08-06T18:45:21.443Z,5.78
2018-08-06T18:47:52.149Z,6.08
2018-08-06T18:50:21.385Z,5.90
2018-08-06T18:52:52.088Z,5.72
2018-08-06T18:55:21.400Z,6.03
2018-08-06T18:57:50.908Z,8.15
2018-08-06T19:00:25.653Z,6.20
2018-08-06T19:02:55.515Z,5.85
2018-08-06T19:05:24.998Z,5.60
2018-08-06T19:07:55.719Z,5.95
2018-08-06T19:10:24.869Z,5.60
2018-08-06T19:30:13.800Z,6.47
2018-08-06T19:32:42.965Z,6.62
2018-08-06T19:35:12.034Z,7.12
2018-08-06T19:37:46.665Z,6.87
2018-08-06T19:40:16.976Z,7.60
2018-08-06T19:42:51.496Z,7.05
2018-08-06T19:45:20.689Z,7.08
2018-08-06T19:47:49.905Z,7.25
2018-08-06T19:50:24.485Z,7.00
2018-08-06T19:52:53.686Z,7.70
2018-08-06T19:55:28.505Z,7.67
2018-08-06T19:57:57.645Z,7.10
2018-08-06T20:00:26.911Z,7.20
2018-08-06T20:02:56.903Z,6.95
2018-08-06T20:05:26.604Z,7.33
2018-08-06T20:07:56.907Z,7.10
2018-08-06T20:10:26.662Z,6.67
2018-08-06T20:12:56.688Z,6.15
2018-08-06T20:15:26.417Z,6.58
2018-08-06T20:17:57.543Z,7.00
2018-08-06T20:20:26.787Z,6.22
2018-08-06T20:22:57.308Z,6.75
2018-08-06T20:25:29.229Z,6.53
2018-08-06T20:28:01.574Z,7.12
2018-08-06T20:30:31.925Z,6.42
2018-08-06T20:33:01.395Z,6.00
2018-08-06T20:35:31.756Z,6.53
2018-08-06T20:38:00.808Z,7.08
2018-08-06T20:40:29.847Z,6.20
2018-08-06T20:42:59.024Z,6.28
2018-08-06T20:45:28.219Z,6.40
2018-08-06T20:47:57.571Z,6.00
2018-08-06T20:50:32.135Z,6.30
2018-08-06T20:53:09.875Z,6.17
2018-08-06T20:55:39.810Z,6.40
2018-08-06T20:58:09.189Z,7.17
2018-08-06T21:00:41.377Z,6.53
2018-08-06T21:03:10.619Z,6.30
2018-08-06T21:05:41.254Z,6.53
2018-08-06T21:08:14.327Z,6.83
2018-08-06T21:10:43.498Z,6.50
2018-08-06T21:13:14.117Z,6.20
2018-08-06T21:15:43.868Z,6.40
2018-08-06T21:18:12.924Z,6.62
2018-08-06T21:20:44.686Z,6.67
2018-08-06T21:23:14.947Z,6.95
2018-08-06T21:25:44.789Z,7.22
2018-08-06T21:28:14.709Z,6.70
2018-08-06T21:30:45.476Z,7.00
2018-08-06T21:33:15.121Z,6.58
2018-08-06T21:35:47.154Z,7.65
2018-08-06T21:38:17.579Z,7.40
2018-08-06T21:40:50.320Z,6.50
2018-08-06T21:43:21.388Z,7.10
2018-08-06T21:45:58.552Z,6.95
2018-08-06T21:48:27.600Z,7.75
2018-08-06T21:50:57.745Z,7.15
2018-08-06T21:53:27.680Z,6.72
2018-08-06T21:55:58.113Z,7.12
2018-08-06T21:58:29.030Z,6.50
2018-08-06T22:00:59.582Z,6.78
2018-08-06T22:03:33.135Z,8.50
2018-08-06T22:06:02.144Z,7.15
2018-08-06T22:08:31.056Z,7.22
2018-08-06T22:11:01.367Z,6.90
2018-08-06T22:13:31.149Z,7.58
2018-08-06T22:16:00.786Z,7.28
2018-08-06T22:18:30.442Z,7.37
2018-08-06T22:20:59.432Z,7.37
2018-08-06T22:23:28.487Z,7.45
2018-08-06T22:25:57.366Z,7.97
2018-08-06T22:28:26.089Z,7.72
2018-08-06T22:30:55.221Z,7.30
2018-08-06T22:33:24.038Z,7.30
2018-08-06T22:35:53.687Z,7.03
2018-08-06T22:38:23.136Z,7.40
2018-08-06T22:40:53.324Z,6.95
2018-08-06T22:43:22.626Z,8.15
2018-08-06T22:45:51.629Z,8.05
2018-08-06T22:48:20.592Z,7.62
2018-08-06T22:50:50.778Z,7.70
2018-08-06T22:53:21.061Z,7.70
2018-08-06T22:56:06.913Z,7.62
2018-08-06T22:58:37.290Z,8.20
2018-08-06T23:01:07.167Z,9.03
2018-08-06T23:03:42.216Z,9.70
2018-08-06T23:06:10.589Z,9.68
2018-08-06T23:08:39.818Z,10.25
2018-08-06T23:11:08.841Z,9.68
2018-08-06T23:13:38.684Z,7.85
2018-08-06T23:16:07.658Z,8.68
2018-08-06T23:18:37.281Z,8.20
2018-08-06T23:21:06.917Z,8.45
2018-08-06T23:23:35.828Z,8.00
2018-08-06T23:26:06.851Z,8.33
2018-08-06T23:28:35.708Z,8.25
2018-08-06T23:31:04.194Z,8.25
2018-08-06T23:33:34.577Z,7.47
2018-08-06T23:36:04.030Z,9.43
2018-08-06T23:38:33.217Z,8.60
2018-08-06T23:41:02.315Z,8.23
2018-08-06T23:43:30.636Z,9.30
2018-08-06T23:45:59.620Z,12.10
2018-08-06T23:48:28.497Z,8.85
2018-08-06T23:50:57.792Z,8.83
2018-08-06T23:53:26.594Z,9.00
2018-08-06T23:55:55.867Z,9.78
2018-08-06T23:58:25.261Z,9.30
